sensor_id;sensor_type;location;lat;lon;timestamp;pressure;altitude;pressure_sealevel;temperature;humidity
46291;BME280;32023;44.444;26.006;2023-03-04T00:02:09;100529.22;;;4.67;91.13
46291;BME280;32023;44.444;26.006;2023-03-04T00:04:37;100521.19;;;4.72;91.00
46291;BME280;32023;44.444;26.006;2023-03-04T00:07:04;100521.84;;;4.74;90.71
46291;BME280;32023;44.444;26.006;2023-03-04T00:09:30;100530.63;;;4.76;90.19
46291;BME280;32023;44.444;26.006;2023-03-04T00:11:56;100522.44;;;4.76;89.90
46291;BME280;32023;44.444;26.006;2023-03-04T00:14:22;100523.53;;;4.75;90.11
46291;BME280;32023;44.444;26.006;2023-03-04T00:16:49;100515.34;;;4.75;90.21
46291;BME280;32023;44.444;26.006;2023-03-04T00:19:15;100512.59;;;4.75;90.08
46291;BME280;32023;44.444;26.006;2023-03-04T00:21:41;100510.53;;;4.71;89.75
46291;BME280;32023;44.444;26.006;2023-03-04T00:24:19;100516.81;;;4.71;89.73
46291;BME280;32023;44.444;26.006;2023-03-04T00:26:49;100508.63;;;4.71;90.19
46291;BME280;32023;44.444;26.006;2023-03-04T00:29:16;100509.69;;;4.70;89.77
46291;BME280;32023;44.444;26.006;2023-03-04T00:31:42;100524.38;;;4.69;89.72
46291;BME280;32023;44.444;26.006;2023-03-04T00:34:08;100516.38;;;4.74;90.16
46291;BME280;32023;44.444;26.006;2023-03-04T00:36:34;100527.28;;;4.74;89.65
46291;BME280;32023;44.444;26.006;2023-03-04T00:39:00;100505.47;;;4.74;89.56
46291;BME280;32023;44.444;26.006;2023-03-04T00:41:29;100505.69;;;4.73;90.06
46291;BME280;32023;44.444;26.006;2023-03-04T00:43:55;100499.38;;;4.72;90.09
46291;BME280;32023;44.444;26.006;2023-03-04T00:46:21;100512.38;;;4.77;89.65
46291;BME280;32023;44.444;26.006;2023-03-04T00:48:48;100515.94;;;4.77;89.75
46291;BME280;32023;44.444;26.006;2023-03-04T00:51:14;100513.22;;;4.77;90.16
46291;BME280;32023;44.444;26.006;2023-03-04T00:53:40;100510.28;;;4.79;89.85
46291;BME280;32023;44.444;26.006;2023-03-04T00:56:06;100508.81;;;4.76;90.50
46291;BME280;32023;44.444;26.006;2023-03-04T00:58:32;100513.22;;;4.77;90.62
46291;BME280;32023;44.444;26.006;2023-03-04T01:00:58;100517.66;;;4.72;90.82
46291;BME280;32023;44.444;26.006;2023-03-04T01:03:25;100518.06;;;4.69;90.62
46291;BME280;32023;44.444;26.006;2023-03-04T01:05:51;100532.56;;;4.69;91.12
46291;BME280;32023;44.444;26.006;2023-03-04T01:08:18;100526.06;;;4.70;91.24
46291;BME280;32023;44.444;26.006;2023-03-04T01:10:47;100520.59;;;4.70;91.26
46291;BME280;32023;44.444;26.006;2023-03-04T01:13:13;100523.75;;;4.67;91.10
46291;BME280;32023;44.444;26.006;2023-03-04T01:15:41;100518.31;;;4.67;91.72
46291;BME280;32023;44.444;26.006;2023-03-04T01:18:08;100526.06;;;4.70;91.43
46291;BME280;32023;44.444;26.006;2023-03-04T01:23:42;100519.09;;;4.74;91.30
46291;BME280;32023;44.444;26.006;2023-03-04T01:26:08;100523.13;;;4.72;91.30
46291;BME280;32023;44.444;26.006;2023-03-04T01:28:35;100524.38;;;4.69;91.33
46291;BME280;32023;44.444;26.006;2023-03-04T01:31:11;100518.91;;;4.69;91.73
46291;BME280;32023;44.444;26.006;2023-03-04T01:33:53;100528.97;;;4.69;91.61
46291;BME280;32023;44.444;26.006;2023-03-04T01:36:20;100527.94;;;4.70;91.69
46291;BME280;32023;44.444;26.006;2023-03-04T01:38:46;100522.28;;;4.71;91.07
46291;BME280;32023;44.444;26.006;2023-03-04T01:41:14;100519.78;;;4.63;91.17
46291;BME280;32023;44.444;26.006;2023-03-04T01:43:43;100519.34;;;4.66;91.80
46291;BME280;32023;44.444;26.006;2023-03-04T01:46:10;100523.13;;;4.65;91.29
46291;BME280;32023;44.444;26.006;2023-03-04T01:48:39;100516.44;;;4.61;91.75
46291;BME280;32023;44.444;26.006;2023-03-04T01:51:10;100512.22;;;4.65;91.69
46291;BME280;32023;44.444;26.006;2023-03-04T01:53:37;100513.47;;;4.69;91.73
46291;BME280;32023;44.444;26.006;2023-03-04T01:56:11;100510.94;;;4.74;91.57
46291;BME280;32023;44.444;26.006;2023-03-04T01:59:05;100509.00;;;4.81;91.55
46291;BME280;32023;44.444;26.006;2023-03-04T02:01:32;100506.44;;;4.87;90.46
46291;BME280;32023;44.444;26.006;2023-03-04T02:03:58;100502.50;;;4.82;89.87
46291;BME280;32023;44.444;26.006;2023-03-04T02:06:24;100509.19;;;4.80;89.92
46291;BME280;32023;44.444;26.006;2023-03-04T02:08:50;100510.47;;;4.77;89.95
46291;BME280;32023;44.444;26.006;2023-03-04T02:11:33;100507.34;;;4.74;89.87
46291;BME280;32023;44.444;26.006;2023-03-04T02:14:00;100510.09;;;4.74;90.64
46291;BME280;32023;44.444;26.006;2023-03-04T02:16:27;100511.63;;;4.63;90.99
46291;BME280;32023;44.444;26.006;2023-03-04T02:18:53;100502.78;;;4.61;91.20
46291;BME280;32023;44.444;26.006;2023-03-04T02:21:22;100509.75;;;4.57;91.64
46291;BME280;32023;44.444;26.006;2023-03-04T02:26:34;100510.56;;;4.64;91.50
46291;BME280;32023;44.444;26.006;2023-03-04T02:29:04;100512.22;;;4.65;91.23
46291;BME280;32023;44.444;26.006;2023-03-04T02:34:21;100529.38;;;4.72;91.41
46291;BME280;32023;44.444;26.006;2023-03-04T02:39:33;100546.75;;;4.84;91.29
46291;BME280;32023;44.444;26.006;2023-03-04T02:42:00;100550.28;;;4.92;91.08
46291;BME280;32023;44.444;26.006;2023-03-04T02:44:30;100541.84;;;5.00;91.00
46291;BME280;32023;44.444;26.006;2023-03-04T02:46:59;100541.78;;;5.06;91.05
46291;BME280;32023;44.444;26.006;2023-03-04T02:49:30;100532.50;;;5.14;90.72
46291;BME280;32023;44.444;26.006;2023-03-04T02:52:06;100536.03;;;5.21;90.52
46291;BME280;32023;44.444;26.006;2023-03-04T02:54:33;100526.94;;;5.27;89.86
46291;BME280;32023;44.444;26.006;2023-03-04T02:57:01;100537.22;;;5.31;89.61
46291;BME280;32023;44.444;26.006;2023-03-04T02:59:27;100537.38;;;5.37;89.15
46291;BME280;32023;44.444;26.006;2023-03-04T03:01:53;100535.03;;;5.40;89.25
46291;BME280;32023;44.444;26.006;2023-03-04T03:04:20;100534.09;;;5.28;88.01
46291;BME280;32023;44.444;26.006;2023-03-04T03:06:48;100531.19;;;5.23;87.64
46291;BME280;32023;44.444;26.006;2023-03-04T03:09:21;100525.78;;;5.16;87.90
46291;BME280;32023;44.444;26.006;2023-03-04T03:11:47;100528.72;;;5.15;88.25
46291;BME280;32023;44.444;26.006;2023-03-04T03:14:14;100526.78;;;5.22;88.94
46291;BME280;32023;44.444;26.006;2023-03-04T03:16:40;100518.97;;;5.25;88.57
46291;BME280;32023;44.444;26.006;2023-03-04T03:19:09;100512.72;;;5.18;87.83
46291;BME280;32023;44.444;26.006;2023-03-04T03:21:35;100512.41;;;5.08;88.21
46291;BME280;32023;44.444;26.006;2023-03-04T03:24:01;100510.50;;;5.09;88.51
46291;BME280;32023;44.444;26.006;2023-03-04T03:26:30;100514.47;;;5.13;89.04
46291;BME280;32023;44.444;26.006;2023-03-04T03:28:56;100516.53;;;5.17;88.90
46291;BME280;32023;44.444;26.006;2023-03-04T03:31:22;100512.06;;;5.23;88.71
46291;BME280;32023;44.444;26.006;2023-03-04T03:33:48;100509.78;;;5.20;88.71
46291;BME280;32023;44.444;26.006;2023-03-04T03:36:15;100509.16;;;5.18;88.61
46291;BME280;32023;44.444;26.006;2023-03-04T03:38:41;100507.94;;;5.14;89.10
46291;BME280;32023;44.444;26.006;2023-03-04T03:41:07;100518.44;;;5.17;88.79
46291;BME280;32023;44.444;26.006;2023-03-04T03:43:33;100521.56;;;5.20;89.01
46291;BME280;32023;44.444;26.006;2023-03-04T03:46:02;100515.25;;;5.20;88.71
46291;BME280;32023;44.444;26.006;2023-03-04T03:48:28;100513.75;;;5.24;89.07
46291;BME280;32023;44.444;26.006;2023-03-04T03:50:54;100514.34;;;5.26;88.35
46291;BME280;32023;44.444;26.006;2023-03-04T03:53:34;100516.94;;;5.21;88.24
46291;BME280;32023;44.444;26.006;2023-03-04T03:56:01;100516.97;;;5.14;88.20
46291;BME280;32023;44.444;26.006;2023-03-04T03:58:38;100516.56;;;5.11;88.60
46291;BME280;32023;44.444;26.006;2023-03-04T04:01:04;100511.94;;;5.11;88.92
46291;BME280;32023;44.444;26.006;2023-03-04T04:03:31;100516.13;;;5.14;89.27
46291;BME280;32023;44.444;26.006;2023-03-04T04:05:57;100513.19;;;5.15;88.62
46291;BME280;32023;44.444;26.006;2023-03-04T04:08:23;100516.75;;;5.16;89.08
46291;BME280;32023;44.444;26.006;2023-03-04T04:10:49;100506.28;;;5.13;88.81
46291;BME280;32023;44.444;26.006;2023-03-04T04:13:16;100517.00;;;5.08;89.15
46291;BME280;32023;44.444;26.006;2023-03-04T04:15:46;100517.00;;;5.08;89.06
46291;BME280;32023;44.444;26.006;2023-03-04T04:18:12;100518.91;;;5.07;88.78
46291;BME280;32023;44.444;26.006;2023-03-04T04:20:39;100516.56;;;5.11;88.90
46291;BME280;32023;44.444;26.006;2023-03-04T04:23:05;100522.59;;;5.19;89.08
46291;BME280;32023;44.444;26.006;2023-03-04T04:25:32;100521.50;;;5.27;88.90
46291;BME280;32023;44.444;26.006;2023-03-04T04:27:58;100526.50;;;5.30;88.88
46291;BME280;32023;44.444;26.006;2023-03-04T04:30:24;100526.06;;;5.33;88.54
46291;BME280;32023;44.444;26.006;2023-03-04T04:32:51;100539.44;;;5.41;88.82
46291;BME280;32023;44.444;26.006;2023-03-04T04:35:17;100526.81;;;5.47;88.15
46291;BME280;32023;44.444;26.006;2023-03-04T04:37:43;100534.94;;;5.53;88.47
46291;BME280;32023;44.444;26.006;2023-03-04T04:40:10;100531.31;;;5.59;87.84
46291;BME280;32023;44.444;26.006;2023-03-04T04:42:42;100527.91;;;5.64;88.02
46291;BME280;32023;44.444;26.006;2023-03-04T04:45:08;100526.41;;;5.68;87.72
46291;BME280;32023;44.444;26.006;2023-03-04T04:47:35;100523.22;;;5.71;86.98
46291;BME280;32023;44.444;26.006;2023-03-04T04:50:01;100526.56;;;5.73;87.08
46291;BME280;32023;44.444;26.006;2023-03-04T04:52:34;100529.06;;;5.74;86.73
46291;BME280;32023;44.444;26.006;2023-03-04T04:55:01;100530.81;;;5.69;86.38
46291;BME280;32023;44.444;26.006;2023-03-04T04:57:27;100535.06;;;5.65;86.36
46291;BME280;32023;44.444;26.006;2023-03-04T04:59:53;100538.38;;;5.67;86.58
46291;BME280;32023;44.444;26.006;2023-03-04T05:02:38;100526.19;;;5.69;86.54
46291;BME280;32023;44.444;26.006;2023-03-04T05:05:05;100525.09;;;5.70;86.55
46291;BME280;32023;44.444;26.006;2023-03-04T05:07:32;100534.97;;;5.71;86.44
46291;BME280;32023;44.444;26.006;2023-03-04T05:09:58;100532.25;;;5.71;85.99
46291;BME280;32023;44.444;26.006;2023-03-04T05:12:24;100531.19;;;5.72;86.06
46291;BME280;32023;44.444;26.006;2023-03-04T05:14:50;100535.81;;;5.72;85.62
46291;BME280;32023;44.444;26.006;2023-03-04T05:17:19;100532.50;;;5.70;85.60
46291;BME280;32023;44.444;26.006;2023-03-04T05:19:45;100537.72;;;5.71;85.58
46291;BME280;32023;44.444;26.006;2023-03-04T05:22:11;100538.34;;;5.73;85.40
46291;BME280;32023;44.444;26.006;2023-03-04T05:24:38;100540.25;;;5.73;85.30
46291;BME280;32023;44.444;26.006;2023-03-04T05:27:04;100545.25;;;5.76;85.85
46291;BME280;32023;44.444;26.006;2023-03-04T05:29:30;100549.41;;;5.78;85.28
46291;BME280;32023;44.444;26.006;2023-03-04T05:31:56;100557.19;;;5.81;85.16
46291;BME280;32023;44.444;26.006;2023-03-04T05:40:03;100566.34;;;5.94;85.36
46291;BME280;32023;44.444;26.006;2023-03-04T05:45:23;100564.63;;;5.99;84.88
46291;BME280;32023;44.444;26.006;2023-03-04T05:47:50;100566.69;;;6.04;84.78
46291;BME280;32023;44.444;26.006;2023-03-04T05:50:16;100567.91;;;6.08;84.80
46291;BME280;32023;44.444;26.006;2023-03-04T05:52:42;100566.38;;;6.12;84.82
46291;BME280;32023;44.444;26.006;2023-03-04T05:55:09;100567.00;;;6.14;84.26
46291;BME280;32023;44.444;26.006;2023-03-04T05:57:35;100572.84;;;6.17;84.61
46291;BME280;32023;44.444;26.006;2023-03-04T06:00:04;100576.63;;;6.16;83.92
46291;BME280;32023;44.444;26.006;2023-03-04T06:02:55;100578.53;;;6.16;84.13
46291;BME280;32023;44.444;26.006;2023-03-04T06:05:20;100574.72;;;6.17;83.79
46291;BME280;32023;44.444;26.006;2023-03-04T06:07:49;100580.00;;;6.18;84.18
46291;BME280;32023;44.444;26.006;2023-03-04T06:10:16;100577.00;;;6.20;83.80
46291;BME280;32023;44.444;26.006;2023-03-04T06:12:42;100582.06;;;6.23;83.41
46291;BME280;32023;44.444;26.006;2023-03-04T06:15:09;100584.72;;;6.29;83.46
46291;BME280;32023;44.444;26.006;2023-03-04T06:17:36;100575.84;;;6.34;83.29
46291;BME280;32023;44.444;26.006;2023-03-04T06:22:40;100565.47;;;6.54;82.82
46291;BME280;32023;44.444;26.006;2023-03-04T06:25:14;100566.75;;;6.70;82.50
46291;BME280;32023;44.444;26.006;2023-03-04T06:27:40;100566.53;;;6.90;82.06
46291;BME280;32023;44.444;26.006;2023-03-04T06:30:08;100571.94;;;7.08;80.87
46291;BME280;32023;44.444;26.006;2023-03-04T06:32:35;100575.56;;;7.20;79.87
46291;BME280;32023;44.444;26.006;2023-03-04T06:35:14;100573.34;;;7.29;78.89
46291;BME280;32023;44.444;26.006;2023-03-04T06:37:46;100576.47;;;7.32;78.25
46291;BME280;32023;44.444;26.006;2023-03-04T06:40:34;100575.63;;;7.32;77.83
46291;BME280;32023;44.444;26.006;2023-03-04T06:43:00;100576.91;;;7.29;77.50
46291;BME280;32023;44.444;26.006;2023-03-04T06:45:29;100582.25;;;7.24;76.95
46291;BME280;32023;44.444;26.006;2023-03-04T06:47:55;100585.47;;;7.21;76.57
46291;BME280;32023;44.444;26.006;2023-03-04T06:50:21;100577.25;;;7.21;75.76
46291;BME280;32023;44.444;26.006;2023-03-04T06:52:48;100580.81;;;7.21;75.20
46291;BME280;32023;44.444;26.006;2023-03-04T06:55:14;100571.31;;;7.24;74.55
46291;BME280;32023;44.444;26.006;2023-03-04T06:57:40;100578.72;;;7.35;74.13
46291;BME280;32023;44.444;26.006;2023-03-04T07:00:06;100590.56;;;7.47;73.46
46291;BME280;32023;44.444;26.006;2023-03-04T07:02:33;100581.16;;;7.55;73.14
46291;BME280;32023;44.444;26.006;2023-03-04T07:05:07;100583.53;;;7.63;72.78
46291;BME280;32023;44.444;26.006;2023-03-04T07:07:48;100582.63;;;7.69;72.63
46291;BME280;32023;44.444;26.006;2023-03-04T07:10:15;100576.19;;;7.75;72.29
46291;BME280;32023;44.444;26.006;2023-03-04T07:12:43;100569.53;;;7.83;72.27
46291;BME280;32023;44.444;26.006;2023-03-04T07:15:09;100561.78;;;7.91;72.15
46291;BME280;32023;44.444;26.006;2023-03-04T07:17:35;100567.97;;;7.98;71.87
46291;BME280;32023;44.444;26.006;2023-03-04T07:20:05;100566.78;;;8.06;71.65
46291;BME280;32023;44.444;26.006;2023-03-04T07:22:40;100529.94;;;7.79;71.34
46291;BME280;32023;44.444;26.006;2023-03-04T07:25:06;100562.13;;;7.95;72.27
46291;BME280;32023;44.444;26.006;2023-03-04T07:27:32;100567.50;;;7.90;73.12
46291;BME280;32023;44.444;26.006;2023-03-04T07:29:59;100569.66;;;7.88;73.66
46291;BME280;32023;44.444;26.006;2023-03-04T07:32:25;100568.78;;;7.75;74.18
46291;BME280;32023;44.444;26.006;2023-03-04T07:34:51;100568.56;;;7.65;74.72
46291;BME280;32023;44.444;26.006;2023-03-04T07:37:17;100558.38;;;7.43;75.29
46291;BME280;32023;44.444;26.006;2023-03-04T07:39:43;100562.88;;;7.37;75.89
46291;BME280;32023;44.444;26.006;2023-03-04T07:42:10;100557.31;;;7.44;76.09
46291;BME280;32023;44.444;26.006;2023-03-04T07:44:37;100556.91;;;7.40;76.73
46291;BME280;32023;44.444;26.006;2023-03-04T07:47:04;100511.56;;;7.44;76.24
46291;BME280;32023;44.444;26.006;2023-03-04T07:49:30;100543.19;;;7.82;75.20
46291;BME280;32023;44.444;26.006;2023-03-04T07:51:56;100546.88;;;7.75;74.14
46291;BME280;32023;44.444;26.006;2023-03-04T07:54:26;100536.25;;;7.79;74.71
46291;BME280;32023;44.444;26.006;2023-03-04T07:56:55;100534.25;;;7.98;73.76
46291;BME280;32023;44.444;26.006;2023-03-04T07:59:21;100535.78;;;8.05;73.13
46291;BME280;32023;44.444;26.006;2023-03-04T08:01:47;100532.22;;;8.05;72.96
46291;BME280;32023;44.444;26.006;2023-03-04T08:04:13;100527.91;;;7.86;73.31
46291;BME280;32023;44.444;26.006;2023-03-04T08:06:40;100533.16;;;7.75;73.56
46291;BME280;32023;44.444;26.006;2023-03-04T08:09:07;100524.94;;;7.64;74.28
46291;BME280;32023;44.444;26.006;2023-03-04T08:11:34;100531.72;;;7.61;73.79
46291;BME280;32023;44.444;26.006;2023-03-04T08:14:01;100525.75;;;7.64;74.31
46291;BME280;32023;44.444;26.006;2023-03-04T08:16:27;100523.88;;;7.77;73.42
46291;BME280;32023;44.444;26.006;2023-03-04T08:19:03;100526.50;;;7.95;73.11
46291;BME280;32023;44.444;26.006;2023-03-04T08:21:30;100521.97;;;7.89;72.30
46291;BME280;32023;44.444;26.006;2023-03-04T08:23:57;100528.38;;;7.59;73.70
46291;BME280;32023;44.444;26.006;2023-03-04T08:26:34;100529.03;;;7.20;75.33
46291;BME280;32023;44.444;26.006;2023-03-04T08:29:03;100515.19;;;7.15;76.86
46291;BME280;32023;44.444;26.006;2023-03-04T08:31:29;100529.66;;;7.04;77.57
46291;BME280;32023;44.444;26.006;2023-03-04T08:33:56;100513.84;;;6.76;78.38
46291;BME280;32023;44.444;26.006;2023-03-04T08:36:22;100514.09;;;6.74;78.69
46291;BME280;32023;44.444;26.006;2023-03-04T08:38:48;100522.16;;;6.69;79.19
46291;BME280;32023;44.444;26.006;2023-03-04T08:41:15;100513.41;;;6.79;79.25
46291;BME280;32023;44.444;26.006;2023-03-04T08:43:42;100516.78;;;6.93;78.64
46291;BME280;32023;44.444;26.006;2023-03-04T08:46:08;100514.34;;;6.85;78.40
46291;BME280;32023;44.444;26.006;2023-03-04T08:48:47;100505.25;;;6.91;78.44
46291;BME280;32023;44.444;26.006;2023-03-04T08:53:47;100508.56;;;7.34;78.01
46291;BME280;32023;44.444;26.006;2023-03-04T08:56:13;100504.28;;;7.38;77.92
46291;BME280;32023;44.444;26.006;2023-03-04T08:58:45;100509.88;;;7.32;78.14
46291;BME280;32023;44.444;26.006;2023-03-04T09:01:23;100504.84;;;7.17;77.75
46291;BME280;32023;44.444;26.006;2023-03-04T09:04:09;100496.34;;;7.07;78.58
46291;BME280;32023;44.444;26.006;2023-03-04T09:06:43;100500.78;;;7.19;78.38
46291;BME280;32023;44.444;26.006;2023-03-04T09:09:11;100500.78;;;7.19;77.58
46291;BME280;32023;44.444;26.006;2023-03-04T09:11:45;100497.00;;;7.20;77.99
46291;BME280;32023;44.444;26.006;2023-03-04T09:14:14;100506.19;;;6.96;77.97
46291;BME280;32023;44.444;26.006;2023-03-04T09:16:43;100499.81;;;7.02;78.95
46291;BME280;32023;44.444;26.006;2023-03-04T09:19:21;100497.06;;;7.02;79.22
46291;BME280;32023;44.444;26.006;2023-03-04T09:21:58;100489.66;;;7.03;79.25
46291;BME280;32023;44.444;26.006;2023-03-04T09:24:25;100463.44;;;6.95;78.18
46291;BME280;32023;44.444;26.006;2023-03-04T09:26:54;100484.03;;;7.28;78.13
46291;BME280;32023;44.444;26.006;2023-03-04T09:29:29;100487.38;;;7.41;77.15
46291;BME280;32023;44.444;26.006;2023-03-04T09:32:14;100487.63;;;7.40;77.10
46291;BME280;32023;44.444;26.006;2023-03-04T09:35:04;100486.41;;;7.24;77.26
46291;BME280;32023;44.444;26.006;2023-03-04T09:37:38;100475.47;;;7.36;77.46
46291;BME280;32023;44.444;26.006;2023-03-04T09:40:06;100474.38;;;7.48;77.31
46291;BME280;32023;44.444;26.006;2023-03-04T09:45:32;100467.28;;;7.47;76.99
46291;BME280;32023;44.444;26.006;2023-03-04T09:48:24;100471.91;;;7.58;77.12
46291;BME280;32023;44.444;26.006;2023-03-04T09:54:27;100466.19;;;7.71;76.00
46291;BME280;32023;44.444;26.006;2023-03-04T10:00:30;100456.19;;;7.77;75.32
46291;BME280;32023;44.444;26.006;2023-03-04T10:21:38;100413.50;;;9.73;66.49
46291;BME280;32023;44.444;26.006;2023-03-04T10:37:14;100402.16;;;10.29;64.19
46291;BME280;32023;44.444;26.006;2023-03-04T10:39:45;100391.91;;;12.16;57.63
46291;BME280;32023;44.444;26.006;2023-03-04T10:42:43;100377.94;;;13.89;52.44
46291;BME280;32023;44.444;26.006;2023-03-04T10:45:20;100378.28;;;14.46;48.97
46291;BME280;32023;44.444;26.006;2023-03-04T10:48:05;100384.66;;;13.58;51.40
46291;BME280;32023;44.444;26.006;2023-03-04T10:53:30;100357.44;;;13.90;52.43
46291;BME280;32023;44.444;26.006;2023-03-04T11:02:34;100338.81;;;16.75;42.93
46291;BME280;32023;44.444;26.006;2023-03-04T11:07:47;100324.19;;;17.80;40.14
46291;BME280;32023;44.444;26.006;2023-03-04T11:10:20;100330.47;;;19.12;37.83
46291;BME280;32023;44.444;26.006;2023-03-04T11:13:01;100321.13;;;21.08;33.92
46291;BME280;32023;44.444;26.006;2023-03-04T11:15:31;100318.09;;;22.41;31.70
46291;BME280;32023;44.444;26.006;2023-03-04T11:21:18;100296.19;;;23.17;29.23
46291;BME280;32023;44.444;26.006;2023-03-04T11:24:07;100292.28;;;24.12;27.82
46291;BME280;32023;44.444;26.006;2023-03-04T11:26:59;100281.78;;;24.21;27.72
46291;BME280;32023;44.444;26.006;2023-03-04T11:32:21;100269.09;;;24.27;27.32
46291;BME280;32023;44.444;26.006;2023-03-04T11:38:07;100259.91;;;24.54;27.03
46291;BME280;32023;44.444;26.006;2023-03-04T11:43:34;100246.78;;;23.49;28.44
46291;BME280;32023;44.444;26.006;2023-03-04T12:26:54;100197.63;;;21.19;31.52
46291;BME280;32023;44.444;26.006;2023-03-04T12:54:10;100151.84;;;17.78;36.43
46291;BME280;32023;44.444;26.006;2023-03-04T12:56:40;100158.91;;;17.85;36.55
46291;BME280;32023;44.444;26.006;2023-03-04T13:12:46;100117.91;;;16.49;38.81
46291;BME280;32023;44.444;26.006;2023-03-04T13:15:17;100111.00;;;16.65;39.15
46291;BME280;32023;44.444;26.006;2023-03-04T13:25:36;100107.22;;;16.56;39.99
46291;BME280;32023;44.444;26.006;2023-03-04T13:31:03;100092.91;;;16.16;40.90
46291;BME280;32023;44.444;26.006;2023-03-04T13:33:50;100106.59;;;15.94;41.62
46291;BME280;32023;44.444;26.006;2023-03-04T13:36:33;100096.03;;;15.77;42.00
46291;BME280;32023;44.444;26.006;2023-03-04T13:39:21;100098.16;;;15.43;42.71
46291;BME280;32023;44.444;26.006;2023-03-04T13:41:54;100079.88;;;15.18;43.56
46291;BME280;32023;44.444;26.006;2023-03-04T13:44:32;100075.34;;;15.27;43.45
46291;BME280;32023;44.444;26.006;2023-03-04T13:47:11;100076.34;;;15.36;43.69
46291;BME280;32023;44.444;26.006;2023-03-04T13:49:40;100077.38;;;15.40;43.60
46291;BME280;32023;44.444;26.006;2023-03-04T13:55:25;100064.84;;;15.24;43.39
46291;BME280;32023;44.444;26.006;2023-03-04T13:57:55;100060.22;;;15.15;44.46
46291;BME280;32023;44.444;26.006;2023-03-04T14:00:26;100048.34;;;15.14;44.35
46291;BME280;32023;44.444;26.006;2023-03-04T14:03:13;100052.75;;;15.15;44.44
46291;BME280;32023;44.444;26.006;2023-03-04T14:05:45;100050.72;;;15.02;44.76
46291;BME280;32023;44.444;26.006;2023-03-04T14:14:23;100040.44;;;14.26;46.94
46291;BME280;32023;44.444;26.006;2023-03-04T14:19:28;100035.44;;;14.28;46.96
46291;BME280;32023;44.444;26.006;2023-03-04T14:25:22;100026.69;;;14.16;46.59
46291;BME280;32023;44.444;26.006;2023-03-04T14:28:30;100025.66;;;14.12;46.93
46291;BME280;32023;44.444;26.006;2023-03-04T14:31:26;100028.16;;;13.75;47.40
46291;BME280;32023;44.444;26.006;2023-03-04T14:34:28;100027.59;;;13.78;47.59
46291;BME280;32023;44.444;26.006;2023-03-04T14:37:22;100023.38;;;13.52;47.85
46291;BME280;32023;44.444;26.006;2023-03-04T14:40:39;100026.78;;;13.38;48.99
46291;BME280;32023;44.444;26.006;2023-03-04T14:43:35;100012.44;;;13.31;49.48
46291;BME280;32023;44.444;26.006;2023-03-04T14:46:45;100017.44;;;13.29;49.86
46291;BME280;32023;44.444;26.006;2023-03-04T14:49:46;100015.22;;;13.26;50.57
46291;BME280;32023;44.444;26.006;2023-03-04T14:52:41;100013.16;;;12.93;51.73
46291;BME280;32023;44.444;26.006;2023-03-04T14:55:25;100009.69;;;12.72;52.99
46291;BME280;32023;44.444;26.006;2023-03-04T14:58:05;100015.28;;;12.57;54.16
46291;BME280;32023;44.444;26.006;2023-03-04T15:00:34;100014.97;;;12.59;54.24
46291;BME280;32023;44.444;26.006;2023-03-04T15:03:06;100007.34;;;12.25;55.62
46291;BME280;32023;44.444;26.006;2023-03-04T15:05:43;100006.81;;;12.18;56.54
46291;BME280;32023;44.444;26.006;2023-03-04T15:08:28;100003.47;;;12.21;56.21
46291;BME280;32023;44.444;26.006;2023-03-04T15:11:00;100000.22;;;12.04;56.97
46291;BME280;32023;44.444;26.006;2023-03-04T15:16:18;99998.56;;;11.83;58.57
46291;BME280;32023;44.444;26.006;2023-03-04T15:18:55;99993.88;;;11.73;58.78
46291;BME280;32023;44.444;26.006;2023-03-04T15:21:29;99995.53;;;11.59;59.88
46291;BME280;32023;44.444;26.006;2023-03-04T15:23:55;99989.72;;;11.50;60.19
46291;BME280;32023;44.444;26.006;2023-03-04T15:26:23;99988.59;;;11.36;60.82
46291;BME280;32023;44.444;26.006;2023-03-04T15:31:34;99983.06;;;11.26;61.87
46291;BME280;32023;44.444;26.006;2023-03-04T15:34:00;99975.88;;;11.15;62.47
46291;BME280;32023;44.444;26.006;2023-03-04T15:36:29;99980.03;;;11.13;62.13
46291;BME280;32023;44.444;26.006;2023-03-04T15:38:55;99968.97;;;11.07;62.49
46291;BME280;32023;44.444;26.006;2023-03-04T15:41:23;99969.78;;;11.03;62.64
46291;BME280;32023;44.444;26.006;2023-03-04T15:43:50;99967.88;;;10.98;62.92
46291;BME280;32023;44.444;26.006;2023-03-04T15:46:22;99961.50;;;10.93;63.16
46291;BME280;32023;44.444;26.006;2023-03-04T15:48:53;99970.84;;;10.82;63.21
46291;BME280;32023;44.444;26.006;2023-03-04T15:51:22;99967.78;;;10.73;63.82
46291;BME280;32023;44.444;26.006;2023-03-04T16:02:29;99959.38;;;10.33;65.29
46291;BME280;32023;44.444;26.006;2023-03-04T16:05:16;99957.41;;;10.23;66.19
46291;BME280;32023;44.444;26.006;2023-03-04T16:07:43;99959.59;;;10.21;65.99
46291;BME280;32023;44.444;26.006;2023-03-04T16:13:22;99947.94;;;10.09;66.49
46291;BME280;32023;44.444;26.006;2023-03-04T16:21:21;99960.47;;;9.90;67.63
46291;BME280;32023;44.444;26.006;2023-03-04T16:24:16;99956.00;;;9.79;67.50
46291;BME280;32023;44.444;26.006;2023-03-04T16:26:50;99943.88;;;9.75;68.17
46291;BME280;32023;44.444;26.006;2023-03-04T16:29:25;99950.13;;;9.65;68.29
46291;BME280;32023;44.444;26.006;2023-03-04T16:35:45;99947.88;;;9.57;69.45
46291;BME280;32023;44.444;26.006;2023-03-04T16:38:22;99954.97;;;9.48;69.68
46291;BME280;32023;44.444;26.006;2023-03-04T16:41:10;99946.13;;;9.46;70.07
46291;BME280;32023;44.444;26.006;2023-03-04T16:49:31;99936.41;;;9.33;71.15
46291;BME280;32023;44.444;26.006;2023-03-04T16:52:00;99941.59;;;9.30;71.50
46291;BME280;32023;44.444;26.006;2023-03-04T16:54:28;99945.16;;;9.25;71.42
46291;BME280;32023;44.444;26.006;2023-03-04T16:56:55;99946.22;;;9.24;71.62